createdAt,value
2018-04-10T00:00:05.837Z,58.93
2018-04-10T00:02:34.293Z,67.60
2018-04-10T00:05:02.556Z,68.17
2018-04-10T00:07:30.847Z,64.97
2018-04-10T00:09:59.213Z,67.97
2018-04-10T00:12:28.186Z,74.10
2018-04-10T00:14:56.443Z,63.57
2018-04-10T00:17:24.683Z,58.97
2018-04-10T00:19:53.041Z,71.10
2018-04-10T00:22:21.219Z,64.43
2018-04-10T00:24:49.490Z,63.30
2018-04-10T00:27:17.754Z,71.00
2018-04-10T00:29:45.940Z,65.47
2018-04-10T00:32:14.332Z,63.07
2018-04-10T00:34:42.612Z,67.77
2018-04-10T00:37:11.837Z,61.30
2018-04-10T00:39:40.829Z,65.83
2018-04-10T00:42:09.172Z,55.10
2018-04-10T00:44:37.465Z,59.33
2018-04-10T00:47:07.224Z,54.80
2018-04-10T00:49:36.203Z,56.07
2018-04-10T00:52:04.650Z,45.30
2018-04-10T00:54:32.855Z,54.00
2018-04-10T00:57:01.135Z,56.40
2018-04-10T00:59:29.361Z,54.07
2018-04-10T01:01:57.638Z,71.30
2018-04-10T01:04:26.065Z,74.80
2018-04-10T01:06:55.543Z,81.27
2018-04-10T01:09:23.971Z,85.30
2018-04-10T01:11:57.445Z,91.40
2018-04-10T01:14:31.261Z,94.67
2018-04-10T01:17:00.003Z,98.80
2018-04-10T01:19:28.909Z,106.33
2018-04-10T01:21:58.281Z,90.33
2018-04-10T01:24:27.444Z,85.90
2018-04-10T01:27:00.283Z,107.43
2018-04-10T01:29:29.448Z,106.23
2018-04-10T01:32:00.154Z,102.77
2018-04-10T01:34:38.340Z,97.57
2018-04-10T01:37:08.151Z,96.73
2018-04-10T01:39:37.967Z,103.60
2018-04-10T01:42:06.220Z,88.60
2018-04-10T01:44:34.504Z,99.37
2018-04-10T01:47:02.756Z,95.03
2018-04-10T01:49:31.286Z,89.33
2018-04-10T01:54:40.888Z,92.93
2018-04-10T01:57:09.939Z,89.73
2018-04-10T01:59:38.150Z,83.03
2018-04-10T02:02:06.382Z,92.63
2018-04-10T02:04:34.786Z,99.40
2018-04-10T02:07:03.395Z,109.83
2018-04-10T02:09:32.423Z,101.50
2018-04-10T02:12:01.562Z,108.87
2018-04-10T02:14:31.791Z,107.60
2018-04-10T02:17:00.860Z,123.90
2018-04-10T02:19:29.125Z,122.47
2018-04-10T02:21:57.387Z,114.87
2018-04-10T02:24:26.415Z,109.77
2018-04-10T02:26:54.807Z,115.97
2018-04-10T02:29:23.067Z,114.73
2018-04-10T02:31:51.363Z,101.13
2018-04-10T02:34:19.641Z,100.53
2018-04-10T02:36:47.901Z,100.40
2018-04-10T02:39:16.233Z,89.30
2018-04-10T02:41:45.325Z,100.97
2018-04-10T02:44:13.635Z,106.17
2018-04-10T02:46:41.983Z,105.70
2018-04-10T02:49:10.240Z,102.47
2018-04-10T02:51:38.531Z,110.20
2018-04-10T02:54:06.756Z,119.03
2018-04-10T02:56:35.058Z,123.20
2018-04-10T02:59:03.296Z,123.23
2018-04-10T03:01:32.250Z,117.43
2018-04-10T03:04:00.496Z,120.20
2018-04-10T03:06:28.787Z,118.77
2018-04-10T03:08:57.022Z,120.83
2018-04-10T03:11:25.360Z,127.60
2018-04-10T03:13:53.610Z,121.60
2018-04-10T03:16:21.810Z,126.73
2018-04-10T03:18:50.048Z,120.27
2018-04-10T03:21:18.300Z,126.73
2018-04-10T03:23:47.310Z,124.80
2018-04-10T03:26:16.258Z,136.17
2018-04-10T03:28:44.484Z,125.90
2018-04-10T03:31:14.521Z,124.83
2018-04-10T03:33:42.790Z,142.90
2018-04-10T03:36:11.046Z,118.63
2018-04-10T03:38:39.370Z,128.23
2018-04-10T03:41:09.879Z,116.27
2018-04-10T03:43:38.792Z,121.97
2018-04-10T03:46:07.078Z,120.00
2018-04-10T03:48:35.320Z,106.33
2018-04-10T03:51:03.608Z,114.07
2018-04-10T03:53:32.214Z,106.03
2018-04-10T03:56:00.604Z,111.43
2018-04-10T03:58:29.701Z,105.73
2018-04-10T04:00:57.953Z,98.63
2018-04-10T04:03:26.237Z,97.53
2018-04-10T04:05:54.435Z,97.70
2018-04-10T04:08:22.739Z,95.90
2018-04-10T04:10:51.197Z,95.50
2018-04-10T04:13:19.530Z,97.00
2018-04-10T04:15:47.814Z,99.33
2018-04-10T04:18:28.109Z,103.27
2018-04-10T04:21:08.461Z,94.03
2018-04-10T04:23:36.678Z,95.50
2018-04-10T04:26:05.033Z,107.37
2018-04-10T04:28:33.293Z,99.50
2018-04-10T04:31:02.223Z,109.97
2018-04-10T04:33:30.689Z,117.17
2018-04-10T04:35:58.925Z,111.33
2018-04-10T04:38:27.181Z,106.23
2018-04-10T04:40:56.306Z,110.03
2018-04-10T04:43:24.903Z,107.93
2018-04-10T04:45:53.590Z,104.97
2018-04-10T04:48:22.004Z,95.93
2018-04-10T04:50:50.283Z,101.83
2018-04-10T04:53:18.552Z,88.53
2018-04-10T04:55:46.784Z,84.60
2018-04-10T04:58:15.764Z,72.93
2018-04-10T05:00:44.773Z,72.10
2018-04-10T05:03:13.081Z,67.03
2018-04-10T05:05:43.021Z,59.87
2018-04-10T05:08:11.229Z,65.00
2018-04-10T05:10:40.467Z,61.80
2018-04-10T05:13:08.760Z,55.20
2018-04-10T05:15:37.924Z,59.40
2018-04-10T05:18:06.191Z,53.87
2018-04-10T05:20:36.007Z,60.50
2018-04-10T05:23:05.030Z,65.03
2018-04-10T05:25:33.260Z,65.10
2018-04-10T05:28:02.319Z,73.93
2018-04-10T05:30:30.601Z,70.90
2018-04-10T05:32:59.177Z,79.43
2018-04-10T05:35:27.795Z,80.83
2018-04-10T05:37:56.866Z,80.37
2018-04-10T05:40:25.185Z,95.53
2018-04-10T05:42:54.179Z,92.83
2018-04-10T05:45:23.184Z,95.67
2018-04-10T05:47:51.607Z,73.73
2018-04-10T05:50:19.875Z,62.17
2018-04-10T05:52:48.125Z,56.20
2018-04-10T05:55:17.113Z,57.57
2018-04-10T05:57:46.089Z,54.07
2018-04-10T06:00:15.169Z,51.73
2018-04-10T06:02:45.001Z,48.13
2018-04-10T06:05:14.740Z,43.07
2018-04-10T06:07:43.783Z,41.47
2018-04-10T06:10:12.002Z,44.57
2018-04-10T06:12:40.496Z,42.40
2018-04-10T06:15:08.792Z,43.47
2018-04-10T06:17:37.298Z,45.57
2018-04-10T06:20:06.328Z,39.97
2018-04-10T06:22:35.393Z,36.73
2018-04-10T06:25:03.847Z,37.60
2018-04-10T06:27:32.277Z,34.37
2018-04-10T06:30:01.719Z,31.00
2018-04-10T06:32:30.127Z,31.87
2018-04-10T06:34:58.501Z,31.03
2018-04-10T06:37:26.838Z,31.83
2018-04-10T06:39:55.946Z,28.70
2018-04-10T06:42:24.243Z,29.60
2018-04-10T06:44:53.631Z,28.57
2018-04-10T06:47:22.018Z,29.00
2018-04-10T06:49:51.791Z,30.13
2018-04-10T06:52:20.865Z,27.17
2018-04-10T06:54:49.485Z,29.00
2018-04-10T06:57:18.500Z,28.73
2018-04-10T06:59:46.729Z,29.90
2018-04-10T07:02:15.145Z,27.43
2018-04-10T07:04:43.681Z,26.40
2018-04-10T07:07:12.061Z,26.10
2018-04-10T07:09:40.329Z,23.83
2018-04-10T07:12:09.371Z,24.30
2018-04-10T07:14:38.332Z,22.43
2018-04-10T07:17:06.704Z,22.83
2018-04-10T07:19:35.829Z,24.67
2018-04-10T07:22:04.917Z,22.57
2018-04-10T07:24:33.489Z,22.63
2018-04-10T07:27:01.973Z,21.00
2018-04-10T07:29:30.664Z,23.73
2018-04-10T07:31:58.915Z,21.87
2018-04-10T07:34:27.317Z,21.20
2018-04-10T07:36:55.590Z,20.07
2018-04-10T07:39:23.937Z,18.83
2018-04-10T07:41:52.205Z,18.67
2018-04-10T07:44:20.748Z,17.80
2018-04-10T07:46:49.247Z,16.77
2018-04-10T07:49:19.209Z,18.10
2018-04-10T07:51:47.436Z,17.70
2018-04-10T07:54:16.481Z,17.27
2018-04-10T07:56:45.487Z,18.00
2018-04-10T07:59:13.720Z,16.40
2018-04-10T08:01:41.997Z,15.63
2018-04-10T08:04:11.039Z,14.67
2018-04-10T08:06:39.360Z,14.57
2018-04-10T08:09:07.817Z,16.27
2018-04-10T08:11:36.071Z,15.80
2018-04-10T08:14:04.677Z,12.80
2018-04-10T08:16:33.366Z,14.37
2018-04-10T08:19:01.845Z,12.40
2018-04-10T08:21:31.047Z,11.73
2018-04-10T08:23:59.719Z,14.40
2018-04-10T08:26:28.120Z,11.37
2018-04-10T08:28:56.443Z,11.80
2018-04-10T08:31:24.771Z,11.67
2018-04-10T08:33:53.002Z,9.43
2018-04-10T08:36:22.140Z,9.20
2018-04-10T08:38:50.711Z,9.17
2018-04-10T08:41:19.941Z,9.33
2018-04-10T08:43:48.200Z,8.70
2018-04-10T08:46:16.531Z,8.50
2018-04-10T08:48:44.979Z,8.43
2018-04-10T08:51:14.813Z,7.97
2018-04-10T08:53:44.592Z,8.97
2018-04-10T08:56:13.483Z,8.63
2018-04-10T08:58:41.914Z,10.10
2018-04-10T09:01:10.944Z,9.30
2018-04-10T09:03:39.194Z,9.57
2018-04-10T09:06:08.476Z,8.57
2018-04-10T09:08:36.720Z,7.40
2018-04-10T09:11:05.369Z,7.43
2018-04-10T09:13:33.626Z,8.20
2018-04-10T09:16:02.777Z,8.40
2018-04-10T09:18:31.042Z,8.90
2018-04-10T09:21:00.088Z,7.93
2018-04-10T09:23:29.816Z,11.63
2018-04-10T09:25:58.802Z,8.27
2018-04-10T09:28:27.772Z,8.37
2018-04-10T09:30:55.999Z,8.50
2018-04-10T09:33:24.951Z,7.57
2018-04-10T09:35:53.176Z,7.63
2018-04-10T09:38:22.046Z,7.73
2018-04-10T09:40:51.005Z,8.57
2018-04-10T09:43:20.787Z,7.83
2018-04-10T09:45:48.988Z,10.43
2018-04-10T09:48:17.171Z,6.23
2018-04-10T09:50:45.439Z,6.00
2018-04-10T09:53:13.616Z,8.20
2018-04-10T09:55:41.802Z,6.10
2018-04-10T09:58:10.007Z,4.97
2018-04-10T10:00:42.588Z,5.20
2018-04-10T10:03:10.801Z,7.33
2018-04-10T10:05:39.005Z,6.53
2018-04-10T10:08:08.797Z,5.40
2018-04-10T10:10:37.095Z,3.90
2018-04-10T10:13:05.467Z,5.20
2018-04-10T10:15:33.723Z,4.67
2018-04-10T10:18:02.130Z,4.13
2018-04-10T10:20:31.895Z,4.30
2018-04-10T10:23:00.555Z,5.50
2018-04-10T10:25:28.947Z,5.67
2018-04-10T10:27:58.033Z,4.90
2018-04-10T10:30:26.378Z,3.53
2018-04-10T10:32:54.634Z,3.03
2018-04-10T10:35:23.673Z,3.97
2018-04-10T10:37:51.912Z,3.17
2018-04-10T10:40:21.020Z,3.30
2018-04-10T10:42:49.341Z,5.13
2018-04-10T10:45:17.693Z,3.40
2018-04-10T10:47:45.913Z,3.37
2018-04-10T10:50:14.177Z,4.50
2018-04-10T10:52:43.219Z,3.63
2018-04-10T10:55:12.205Z,4.37
2018-04-10T10:57:41.277Z,5.00
2018-04-10T11:00:09.528Z,3.67
2018-04-10T11:02:38.643Z,6.90
2018-04-10T11:05:07.184Z,4.27
2018-04-10T11:07:35.406Z,3.77
2018-04-10T11:10:03.751Z,5.17
2018-04-10T11:12:32.149Z,2.63
2018-04-10T11:15:01.860Z,3.33
2018-04-10T11:17:30.314Z,5.10
2018-04-10T11:19:58.552Z,4.43
2018-04-10T11:22:29.510Z,5.33
2018-04-10T11:24:57.963Z,4.77
2018-04-10T11:27:26.946Z,4.30
2018-04-10T11:29:55.191Z,5.63
2018-04-10T11:32:23.435Z,4.77
2018-04-10T11:34:51.744Z,4.07
2018-04-10T11:37:19.985Z,4.47
2018-04-10T11:39:49.114Z,4.07
2018-04-10T11:42:17.336Z,3.60
2018-04-10T11:44:46.408Z,3.90
2018-04-10T11:47:14.774Z,4.00
2018-04-10T11:49:42.973Z,5.50
2018-04-10T11:52:11.197Z,4.80
2018-04-10T11:54:40.170Z,3.83
2018-04-10T11:57:09.897Z,3.60
2018-04-10T11:59:38.861Z,7.13
2018-04-10T12:02:07.075Z,4.80
2018-04-10T12:04:35.587Z,6.93
2018-04-10T12:07:03.787Z,5.53
2018-04-10T12:09:32.126Z,4.80
2018-04-10T12:12:01.140Z,5.20
2018-04-10T12:14:29.390Z,4.67
2018-04-10T12:16:57.816Z,3.53
2018-04-10T12:19:27.720Z,6.57
2018-04-10T12:21:57.640Z,5.73
2018-04-10T12:24:26.729Z,8.57
2018-04-10T12:26:55.130Z,5.53
2018-04-10T12:29:23.380Z,3.90
2018-04-10T12:31:51.669Z,3.77
2018-04-10T12:34:20.671Z,4.60
2018-04-10T12:36:48.942Z,5.10
2018-04-10T12:39:17.172Z,4.60
2018-04-10T12:41:45.605Z,4.17
2018-04-10T12:44:13.815Z,5.13
2018-04-10T12:46:42.156Z,3.97
2018-04-10T12:49:10.394Z,5.50
2018-04-10T12:51:38.926Z,5.13
2018-04-10T12:54:07.360Z,6.63
2018-04-10T12:56:36.413Z,3.70
2018-04-10T12:59:05.500Z,4.33
2018-04-10T13:01:33.708Z,4.27
2018-04-10T13:04:02.049Z,3.63
2018-04-10T13:06:30.357Z,3.73
2018-04-10T13:08:59.561Z,3.33
2018-04-10T13:11:28.572Z,4.20
2018-04-10T13:13:57.654Z,4.33
2018-04-10T13:16:26.718Z,5.73
2018-04-10T13:18:54.948Z,8.27
2018-04-10T13:21:23.159Z,5.57
2018-04-10T13:23:51.420Z,5.83
2018-04-10T13:26:20.355Z,5.93
2018-04-10T13:28:48.630Z,5.50
2018-04-10T13:31:17.006Z,6.83
2018-04-10T13:33:45.220Z,6.50
2018-04-10T13:36:13.462Z,4.10
2018-04-10T13:38:41.810Z,4.23
2018-04-10T13:41:10.058Z,5.37
2018-04-10T13:43:39.242Z,4.17
2018-04-10T13:46:08.519Z,5.57
2018-04-10T13:48:36.789Z,4.93
2018-04-10T13:51:05.169Z,4.70
2018-04-10T13:53:33.581Z,6.40
2018-04-10T13:56:01.857Z,6.17
2018-04-10T13:58:30.492Z,5.60
2018-04-10T14:01:00.326Z,4.63
2018-04-10T14:03:29.363Z,3.93
2018-04-10T14:05:58.235Z,4.43
2018-04-10T14:08:28.235Z,4.10
2018-04-10T14:10:56.452Z,9.03
2018-04-10T14:13:25.504Z,4.23
2018-04-10T14:15:54.649Z,3.43
2018-04-10T14:18:23.090Z,4.23
2018-04-10T14:20:51.873Z,4.37
2018-04-10T14:23:20.164Z,3.83
2018-04-10T14:25:48.423Z,3.47
2018-04-10T14:28:16.655Z,4.67
2018-04-10T14:30:44.919Z,4.40
2018-04-10T14:33:13.267Z,6.33
2018-04-10T14:35:41.550Z,3.93
2018-04-10T14:38:09.772Z,4.87
2018-04-10T14:40:38.105Z,3.60
2018-04-10T14:43:06.479Z,4.37
2018-04-10T14:45:35.391Z,4.00
2018-04-10T14:48:03.613Z,4.90
2018-04-10T14:50:33.298Z,5.13
2018-04-10T14:53:02.747Z,4.93
2018-04-10T14:55:31.161Z,4.20
2018-04-10T14:57:59.462Z,5.23
2018-04-10T15:00:27.688Z,3.43
2018-04-10T15:02:56.091Z,3.43
2018-04-10T15:05:24.623Z,3.50
2018-04-10T15:07:53.130Z,5.07
2018-04-10T15:10:22.185Z,3.87
2018-04-10T15:12:51.303Z,6.67
2018-04-10T15:15:20.304Z,4.83
2018-04-10T15:17:49.554Z,4.20
2018-04-10T15:20:17.793Z,4.87
2018-04-10T15:22:46.806Z,5.67
2018-04-10T15:25:15.411Z,4.10
2018-04-10T15:27:43.665Z,5.27
2018-04-10T15:30:12.067Z,4.37
2018-04-10T15:32:40.337Z,4.80
2018-04-10T15:35:08.784Z,8.53
2018-04-10T15:37:37.987Z,3.67
2018-04-10T15:40:07.129Z,6.27
2018-04-10T15:42:35.369Z,5.30
2018-04-10T15:45:04.356Z,6.77
2018-04-10T15:47:33.684Z,4.10
2018-04-10T15:50:02.081Z,4.27
2018-04-10T15:52:30.330Z,5.77
2018-04-10T15:54:59.183Z,6.93
2018-04-10T15:57:27.448Z,7.03
2018-04-10T15:59:55.662Z,5.40
2018-04-10T16:02:23.954Z,5.70
2018-04-10T16:04:52.898Z,5.60
2018-04-10T16:07:21.254Z,6.00
2018-04-10T16:09:49.504Z,6.37
2018-04-10T16:12:18.659Z,5.07
2018-04-10T16:14:47.106Z,5.93
2018-04-10T16:17:15.330Z,7.00
2018-04-10T16:19:44.324Z,5.10
2018-04-10T16:22:13.570Z,6.23
2018-04-10T16:24:41.860Z,5.93
2018-04-10T16:27:10.110Z,5.70
2018-04-10T16:29:39.312Z,5.40
2018-04-10T16:32:07.635Z,6.23
2018-04-10T16:34:35.949Z,5.37
2018-04-10T16:37:05.071Z,7.43
2018-04-10T16:39:33.993Z,4.80
2018-04-10T16:42:02.284Z,4.57
2018-04-10T16:44:30.636Z,4.30
2018-04-10T16:46:58.921Z,4.87
2018-04-10T16:49:27.163Z,5.80
2018-04-10T16:51:55.483Z,6.57
2018-04-10T16:54:23.755Z,5.53
2018-04-10T16:56:51.999Z,6.60
2018-04-10T16:59:20.998Z,10.30
2018-04-10T17:01:49.519Z,9.37
2018-04-10T17:04:17.757Z,7.37
2018-04-10T17:06:46.863Z,6.50
2018-04-10T17:09:15.932Z,8.30
2018-04-10T17:11:44.967Z,7.47
2018-04-10T17:14:14.000Z,8.30
2018-04-10T17:16:42.241Z,8.27
2018-04-10T17:19:11.661Z,8.00
2018-04-10T17:21:40.003Z,10.70
2018-04-10T17:24:09.149Z,9.03
2018-04-10T17:26:37.400Z,8.57
2018-04-10T17:29:05.696Z,8.60
2018-04-10T17:31:33.921Z,7.37
2018-04-10T17:34:02.138Z,8.10
2018-04-10T17:36:30.431Z,6.83
2018-04-10T17:38:58.702Z,5.70
2018-04-10T17:41:26.882Z,6.83
2018-04-10T17:43:55.172Z,10.97
2018-04-10T17:46:23.510Z,10.77
2018-04-10T17:48:51.826Z,9.23
2018-04-10T17:51:20.274Z,10.10
2018-04-10T17:53:48.810Z,5.50
2018-04-10T17:56:18.092Z,8.30
2018-04-10T17:58:46.390Z,7.87
2018-04-10T18:01:14.763Z,9.37
2018-04-10T18:03:43.751Z,4.53
2018-04-10T18:06:12.420Z,9.80
2018-04-10T18:08:40.923Z,5.73
2018-04-10T18:11:09.388Z,5.97
2018-04-10T18:13:38.196Z,6.07
2018-04-10T18:16:07.384Z,6.20
2018-04-10T18:18:35.699Z,7.53
2018-04-10T18:21:04.251Z,9.30
2018-04-10T18:23:32.522Z,5.40
2018-04-10T18:26:00.763Z,6.63
2018-04-10T18:28:29.045Z,7.07
2018-04-10T18:30:58.118Z,6.80
2018-04-10T18:33:26.443Z,5.77
2018-04-10T18:35:54.637Z,8.33
2018-04-10T18:38:23.723Z,8.40
2018-04-10T18:40:52.016Z,6.57
2018-04-10T18:43:21.293Z,7.57
2018-04-10T18:45:49.583Z,7.80
2018-04-10T18:48:17.965Z,11.07
2018-04-10T18:50:47.625Z,8.17
2018-04-10T18:53:16.707Z,10.23
2018-04-10T18:55:45.165Z,11.60
2018-04-10T18:58:13.490Z,11.03
2018-04-10T19:00:41.729Z,9.13
2018-04-10T19:03:10.016Z,9.07
2018-04-10T19:05:38.443Z,6.83
2018-04-10T19:08:06.719Z,6.60
2018-04-10T19:10:34.983Z,8.50
2018-04-10T19:13:03.178Z,6.60
2018-04-10T19:15:31.442Z,7.77
2018-04-10T19:18:00.666Z,9.63
2018-04-10T19:20:28.894Z,6.63
2018-04-10T19:22:58.062Z,6.47
2018-04-10T19:25:26.314Z,6.17
2018-04-10T19:27:54.642Z,5.53
2018-04-10T19:30:22.886Z,7.50
2018-04-10T19:32:51.144Z,5.97
2018-04-10T19:35:21.117Z,7.67
2018-04-10T19:37:49.852Z,5.33
2018-04-10T19:40:18.991Z,6.50
2018-04-10T19:42:47.285Z,8.07
2018-04-10T19:45:15.677Z,8.67
2018-04-10T19:47:44.673Z,6.93
2018-04-10T19:50:12.914Z,6.83
2018-04-10T19:52:42.046Z,9.93
2018-04-10T19:55:11.105Z,7.13
2018-04-10T19:57:39.515Z,8.53
2018-04-10T20:00:07.751Z,6.53
2018-04-10T20:02:36.055Z,8.33
2018-04-10T20:05:04.301Z,6.90
2018-04-10T20:07:32.511Z,5.60
2018-04-10T20:10:00.751Z,10.50
2018-04-10T20:12:29.827Z,7.03
2018-04-10T20:14:58.869Z,6.00
2018-04-10T20:17:27.187Z,6.40
2018-04-10T20:19:58.446Z,7.70
2018-04-10T20:22:26.926Z,7.10
2018-04-10T20:24:56.038Z,7.33
2018-04-10T20:27:24.356Z,7.17
2018-04-10T20:29:52.834Z,7.77
2018-04-10T20:32:21.333Z,6.77
2018-04-10T20:34:49.721Z,7.03
2018-04-10T20:37:17.916Z,9.40
2018-04-10T20:39:47.001Z,7.03
2018-04-10T20:42:15.270Z,8.70
2018-04-10T20:44:43.783Z,8.23
2018-04-10T20:47:12.825Z,7.13
2018-04-10T20:49:41.100Z,7.33
2018-04-10T20:52:09.491Z,7.27
2018-04-10T20:54:37.710Z,7.20
2018-04-10T20:57:06.708Z,7.20
2018-04-10T20:59:35.018Z,7.83
2018-04-10T21:02:03.335Z,8.07
2018-04-10T21:04:32.225Z,7.77
2018-04-10T21:07:00.502Z,6.67
2018-04-10T21:09:29.690Z,6.57
2018-04-10T21:11:59.164Z,6.13
2018-04-10T21:14:27.416Z,5.83
2018-04-10T21:16:55.625Z,5.60
2018-04-10T21:19:23.915Z,5.73
2018-04-10T21:21:52.229Z,7.30
2018-04-10T21:24:20.445Z,6.37
2018-04-10T21:26:50.195Z,5.50
2018-04-10T21:29:18.517Z,7.03
2018-04-10T21:31:48.288Z,6.17
2018-04-10T21:34:16.575Z,6.03
2018-04-10T21:36:44.831Z,6.13
2018-04-10T21:39:13.013Z,6.90
2018-04-10T21:41:41.245Z,6.20
2018-04-10T21:44:09.504Z,6.70
2018-04-10T21:46:37.742Z,8.80
2018-04-10T21:49:05.975Z,7.27
2018-04-10T21:51:34.185Z,7.07
2018-04-10T21:54:02.402Z,8.37
2018-04-10T21:56:30.731Z,6.80
2018-04-10T21:58:58.996Z,8.27
2018-04-10T22:01:27.998Z,7.57
2018-04-10T22:03:56.337Z,7.00
2018-04-10T22:06:24.561Z,7.53
2018-04-10T22:08:52.765Z,9.30
2018-04-10T22:11:21.047Z,7.60
2018-04-10T22:13:49.279Z,7.70
2018-04-10T22:16:18.320Z,7.63
2018-04-10T22:18:47.306Z,7.53
2018-04-10T22:21:15.601Z,7.07
2018-04-10T22:23:43.829Z,6.77
2018-04-10T22:26:12.082Z,8.67
2018-04-10T22:28:41.787Z,6.67
2018-04-10T22:31:10.137Z,9.37
2018-04-10T22:33:38.392Z,9.67
2018-04-10T22:36:06.684Z,13.57
2018-04-10T22:38:35.062Z,9.97
2018-04-10T22:41:03.408Z,10.47
2018-04-10T22:43:32.502Z,10.30
2018-04-10T22:46:00.905Z,11.60
2018-04-10T22:48:29.825Z,12.53
2018-04-10T22:50:58.078Z,12.00
2018-04-10T22:53:26.754Z,12.77
2018-04-10T22:55:55.017Z,11.40
2018-04-10T22:58:23.324Z,11.87
2018-04-10T23:00:51.542Z,14.13
2018-04-10T23:03:19.781Z,12.13
2018-04-10T23:05:48.037Z,10.33
2018-04-10T23:08:16.448Z,10.83
2018-04-10T23:10:44.714Z,11.00
2018-04-10T23:13:13.049Z,10.47
2018-04-10T23:15:42.057Z,10.43
2018-04-10T23:18:11.056Z,11.07
2018-04-10T23:20:40.056Z,13.17
2018-04-10T23:23:09.059Z,10.83
2018-04-10T23:25:38.095Z,12.33
2018-04-10T23:28:06.331Z,11.37
2018-04-10T23:30:34.581Z,11.97
2018-04-10T23:33:03.677Z,11.13
2018-04-10T23:35:32.038Z,11.80
2018-04-10T23:38:00.284Z,11.47
2018-04-10T23:40:29.405Z,11.00
2018-04-10T23:42:57.681Z,11.03
2018-04-10T23:45:25.961Z,12.13
2018-04-10T23:47:54.226Z,11.10
2018-04-10T23:50:23.061Z,11.37
2018-04-10T23:52:52.849Z,11.63
2018-04-10T23:55:21.084Z,11.13
2018-04-10T23:57:50.073Z,11.33
